createdAt,value
2023-02-06T00:01:26.228Z,101207.95
2023-02-06T00:03:54.741Z,101208.78
2023-02-06T00:06:31.137Z,101209.00
2023-02-06T00:08:59.672Z,101205.37
2023-02-06T00:11:27.731Z,101200.98
2023-02-06T00:13:55.708Z,101196.45
2023-02-06T00:16:43.807Z,101196.89
2023-02-06T00:19:12.192Z,101199.30
2023-02-06T00:21:41.204Z,101202.11
2023-02-06T00:24:09.597Z,101201.98
2023-02-06T00:26:38.902Z,101200.10
2023-02-06T00:29:07.236Z,101205.52
2023-02-06T00:31:35.289Z,101206.30
2023-02-06T00:34:03.951Z,101206.90
2023-02-06T00:36:33.688Z,101209.60
2023-02-06T00:39:02.033Z,101209.17
2023-02-06T00:41:30.364Z,101205.43
2023-02-06T00:43:59.228Z,101202.62
2023-02-06T00:46:27.228Z,101201.48
2023-02-06T00:48:55.375Z,101203.42
2023-02-06T00:51:24.542Z,101202.77
2023-02-06T00:53:52.912Z,101198.61
2023-02-06T00:56:20.829Z,101201.71
2023-02-06T00:58:49.032Z,101197.83
2023-02-06T01:01:17.845Z,101199.38
2023-02-06T01:03:46.192Z,101201.83
2023-02-06T01:06:14.914Z,101201.94
2023-02-06T01:08:44.000Z,101203.94
2023-02-06T01:11:13.736Z,101200.08
2023-02-06T01:13:42.298Z,101202.21
2023-02-06T01:16:11.809Z,101201.16
2023-02-06T01:18:40.088Z,101205.39
2023-02-06T01:21:20.885Z,101200.02
2023-02-06T01:23:50.775Z,101201.81
2023-02-06T01:26:20.496Z,101200.98
2023-02-06T01:28:49.998Z,101198.48
2023-02-06T01:31:27.761Z,101200.54
2023-02-06T01:33:57.167Z,101199.94
2023-02-06T01:36:27.048Z,101197.80
2023-02-06T01:38:57.711Z,101200.04
2023-02-06T01:41:25.723Z,101197.04
2023-02-06T01:44:22.057Z,101200.08
2023-02-06T01:46:54.931Z,101198.69
2023-02-06T01:49:25.060Z,101196.40
2023-02-06T01:51:55.434Z,101198.56
2023-02-06T01:54:23.453Z,101204.00
2023-02-06T01:56:54.859Z,101205.64
2023-02-06T01:59:22.957Z,101206.60
2023-02-06T02:01:50.915Z,101208.61
2023-02-06T02:04:20.551Z,101211.66
2023-02-06T02:06:53.326Z,101209.98
2023-02-06T02:09:21.368Z,101214.60
2023-02-06T02:11:50.263Z,101218.81
2023-02-06T02:14:25.248Z,101225.78
2023-02-06T02:17:32.412Z,101226.43
2023-02-06T02:20:38.848Z,101233.09
2023-02-06T02:23:28.938Z,101234.27
2023-02-06T02:26:34.087Z,101235.42
2023-02-06T02:29:22.741Z,101241.75
2023-02-06T02:31:57.879Z,101243.23
2023-02-06T02:34:53.899Z,101239.38
2023-02-06T02:37:27.436Z,101240.81
2023-02-06T02:40:00.699Z,101238.17
2023-02-06T02:42:36.769Z,101242.23
2023-02-06T02:45:13.322Z,101244.52
2023-02-06T02:48:01.608Z,101247.21
2023-02-06T02:50:29.860Z,101251.41
2023-02-06T02:52:58.750Z,101246.46
2023-02-06T02:55:28.434Z,101241.25
2023-02-06T02:58:02.994Z,101242.63
2023-02-06T03:00:35.044Z,101245.54
2023-02-06T03:03:03.092Z,101244.98
2023-02-06T03:05:31.987Z,101248.38
2023-02-06T03:08:10.094Z,101251.02
2023-02-06T03:10:57.706Z,101250.91
2023-02-06T03:13:30.977Z,101250.95
2023-02-06T03:15:59.066Z,101251.02
2023-02-06T03:18:50.739Z,101253.06
2023-02-06T03:21:19.990Z,101253.38
2023-02-06T03:23:49.319Z,101254.05
2023-02-06T03:26:20.118Z,101251.77
2023-02-06T03:28:50.405Z,101255.78
2023-02-06T03:31:21.875Z,101261.65
2023-02-06T03:34:15.975Z,101263.55
2023-02-06T03:36:44.474Z,101261.97
2023-02-06T03:39:12.461Z,101264.93
2023-02-06T03:41:40.678Z,101267.98
2023-02-06T03:44:09.987Z,101261.39
2023-02-06T03:46:40.740Z,101268.73
2023-02-06T03:49:08.922Z,101269.66
2023-02-06T03:51:41.658Z,101271.92
2023-02-06T03:54:09.766Z,101271.20
2023-02-06T03:56:41.740Z,101271.12
2023-02-06T03:59:10.132Z,101276.63
2023-02-06T04:01:43.438Z,101275.61
2023-02-06T04:04:14.331Z,101273.10
2023-02-06T04:06:42.702Z,101274.34
2023-02-06T04:09:11.320Z,101276.78
2023-02-06T04:11:39.586Z,101277.23
2023-02-06T04:14:08.376Z,101280.73
2023-02-06T04:16:37.316Z,101281.16
2023-02-06T04:19:05.436Z,101286.19
2023-02-06T04:21:34.853Z,101286.60
2023-02-06T04:24:03.776Z,101289.45
2023-02-06T04:26:32.829Z,101287.73
2023-02-06T04:29:01.307Z,101289.94
2023-02-06T04:31:29.623Z,101295.39
2023-02-06T04:33:57.853Z,101295.28
2023-02-06T04:36:25.780Z,101298.16
2023-02-06T04:38:54.212Z,101302.65
2023-02-06T04:41:22.222Z,101301.04
2023-02-06T04:43:50.329Z,101303.74
2023-02-06T04:46:18.516Z,101302.96
2023-02-06T04:48:47.268Z,101304.11
2023-02-06T04:51:15.485Z,101303.18
2023-02-06T04:53:43.861Z,101302.48
2023-02-06T04:56:12.599Z,101302.55
2023-02-06T04:58:40.901Z,101301.88
2023-02-06T05:01:09.153Z,101303.75
2023-02-06T05:03:37.449Z,101305.38
2023-02-06T05:06:06.225Z,101308.27
2023-02-06T05:08:34.753Z,101308.05
2023-02-06T05:11:03.013Z,101306.77
2023-02-06T05:13:34.066Z,101306.30
2023-02-06T05:16:09.517Z,101304.41
2023-02-06T05:18:37.993Z,101306.31
2023-02-06T05:21:06.446Z,101306.73
2023-02-06T05:23:34.736Z,101310.36
2023-02-06T05:26:03.296Z,101310.65
2023-02-06T05:28:33.525Z,101314.42
2023-02-06T05:31:03.201Z,101315.83
2023-02-06T05:33:31.714Z,101312.25
2023-02-06T05:36:04.592Z,101313.35
2023-02-06T05:38:33.250Z,101318.52
2023-02-06T05:41:01.636Z,101319.22
2023-02-06T05:43:29.772Z,101316.31
2023-02-06T05:45:57.865Z,101317.52
2023-02-06T05:48:28.852Z,101313.92
2023-02-06T05:50:58.343Z,101313.17
2023-02-06T05:53:26.614Z,101317.63
2023-02-06T05:55:54.622Z,101316.92
2023-02-06T05:58:23.573Z,101319.00
2023-02-06T06:00:51.550Z,101321.92
2023-02-06T06:03:19.866Z,101323.94
2023-02-06T06:05:48.002Z,101325.45
2023-02-06T06:08:16.749Z,101323.61
2023-02-06T06:10:45.102Z,101328.11
2023-02-06T06:13:13.086Z,101326.73
2023-02-06T06:15:41.249Z,101323.80
2023-02-06T06:18:09.377Z,101320.11
2023-02-06T06:20:37.495Z,101320.56
2023-02-06T06:23:06.383Z,101317.47
2023-02-06T06:25:35.954Z,101320.44
2023-02-06T06:28:04.448Z,101314.90
2023-02-06T06:30:35.560Z,101315.55
2023-02-06T06:33:04.045Z,101314.77
2023-02-06T06:35:32.483Z,101321.14
2023-02-06T06:38:00.527Z,101322.89
2023-02-06T06:40:28.955Z,101321.77
2023-02-06T06:42:56.931Z,101323.63
2023-02-06T06:45:25.348Z,101326.09
2023-02-06T06:47:53.674Z,101328.88
2023-02-06T06:50:21.767Z,101329.73
2023-02-06T06:52:49.763Z,101329.59
2023-02-06T06:55:19.847Z,101330.42
2023-02-06T06:57:48.041Z,101331.66
2023-02-06T07:00:16.431Z,101331.38
2023-02-06T07:02:45.773Z,101335.59
2023-02-06T07:05:13.913Z,101341.49
2023-02-06T07:07:42.071Z,101345.05
2023-02-06T07:10:11.773Z,101348.84
2023-02-06T07:12:40.230Z,101350.27
2023-02-06T07:15:08.761Z,101349.02
2023-02-06T07:17:37.557Z,101346.98
2023-02-06T07:20:06.284Z,101349.55
2023-02-06T07:22:34.633Z,101350.20
2023-02-06T07:25:02.951Z,101352.74
2023-02-06T07:27:31.212Z,101359.27
2023-02-06T07:29:59.900Z,101363.92
2023-02-06T07:32:28.570Z,101363.71
2023-02-06T07:34:56.690Z,101359.02
2023-02-06T07:37:24.816Z,101360.88
2023-02-06T07:39:52.921Z,101370.30
2023-02-06T07:42:20.858Z,101368.47
2023-02-06T07:44:53.498Z,101365.76
2023-02-06T07:47:21.552Z,101370.61
2023-02-06T07:49:54.217Z,101369.37
2023-02-06T07:52:22.670Z,101372.47
2023-02-06T07:54:50.780Z,101368.65
2023-02-06T07:57:21.035Z,101368.07
2023-02-06T07:59:49.459Z,101372.01
2023-02-06T08:02:17.669Z,101372.15
2023-02-06T08:04:45.885Z,101367.02
2023-02-06T08:07:16.620Z,101367.84
2023-02-06T08:09:47.190Z,101369.88
2023-02-06T08:12:16.408Z,101370.86
2023-02-06T08:14:47.756Z,101369.30
2023-02-06T08:17:18.351Z,101374.59
2023-02-06T08:19:48.457Z,101378.82
2023-02-06T08:22:16.601Z,101380.58
2023-02-06T08:24:45.442Z,101386.37
2023-02-06T08:27:13.727Z,101386.17
2023-02-06T08:29:42.904Z,101388.52
2023-02-06T08:32:11.332Z,101389.16
2023-02-06T08:34:40.036Z,101385.95
2023-02-06T08:37:08.634Z,101384.38
2023-02-06T08:39:38.277Z,101387.84
2023-02-06T08:42:07.944Z,101392.77
2023-02-06T08:44:36.576Z,101395.71
2023-02-06T08:47:10.137Z,101395.73
2023-02-06T08:49:39.416Z,101394.01
2023-02-06T08:52:10.151Z,101389.21
2023-02-06T08:54:40.263Z,101392.23
2023-02-06T08:57:09.880Z,101391.46
2023-02-06T08:59:38.568Z,101390.96
2023-02-06T09:02:08.568Z,101390.23
2023-02-06T09:04:37.891Z,101393.75
2023-02-06T09:07:06.396Z,101391.33
2023-02-06T09:09:34.602Z,101396.85
2023-02-06T09:12:04.096Z,101393.52
2023-02-06T09:14:32.376Z,101392.06
2023-02-06T09:17:01.344Z,101389.65
2023-02-06T09:19:29.766Z,101385.02
2023-02-06T09:21:59.188Z,101384.23
2023-02-06T09:24:30.336Z,101381.55
2023-02-06T09:27:01.155Z,101384.61
2023-02-06T09:29:34.038Z,101381.93
2023-02-06T09:32:02.414Z,101390.55
2023-02-06T09:34:30.848Z,101398.46
2023-02-06T09:36:58.939Z,101396.54
2023-02-06T09:39:29.103Z,101392.48
2023-02-06T09:42:03.232Z,101390.45
2023-02-06T09:44:34.281Z,101390.20
2023-02-06T09:47:12.536Z,101391.20
2023-02-06T09:49:48.704Z,101387.16
2023-02-06T09:52:36.683Z,101387.70
2023-02-06T09:55:42.650Z,101375.87
2023-02-06T09:58:40.962Z,101378.16
2023-02-06T10:01:28.908Z,101387.09
2023-02-06T10:04:42.755Z,101380.71
2023-02-06T10:07:42.804Z,101382.15
2023-02-06T10:10:41.945Z,101385.70
2023-02-06T10:13:10.806Z,101368.02
2023-02-06T10:15:46.752Z,101371.46
2023-02-06T10:18:37.291Z,101366.11
2023-02-06T10:21:41.458Z,101366.47
2023-02-06T10:24:45.092Z,101368.81
2023-02-06T10:27:17.166Z,101370.95
2023-02-06T10:29:45.742Z,101372.74
2023-02-06T10:32:20.397Z,101372.86
2023-02-06T10:34:59.610Z,101362.39
2023-02-06T10:37:48.015Z,101374.48
2023-02-06T10:40:28.334Z,101364.27
2023-02-06T10:43:02.197Z,101352.55
2023-02-06T10:45:46.891Z,101356.68
2023-02-06T10:48:31.789Z,101355.68
2023-02-06T10:50:59.962Z,101354.84
2023-02-06T10:53:34.224Z,101353.59
2023-02-06T10:56:11.244Z,101362.05
2023-02-06T10:59:05.437Z,101356.73
2023-02-06T11:01:38.524Z,101355.28
2023-02-06T11:04:28.019Z,101358.09
2023-02-06T11:06:58.848Z,101361.20
2023-02-06T11:09:27.314Z,101364.95
2023-02-06T11:11:58.612Z,101361.38
2023-02-06T11:14:35.795Z,101359.06
2023-02-06T11:17:03.846Z,101368.22
2023-02-06T11:19:44.423Z,101367.58
2023-02-06T11:22:15.786Z,101368.02
2023-02-06T11:25:26.753Z,101366.73
2023-02-06T11:27:56.470Z,101367.45
2023-02-06T11:30:36.741Z,101371.85
2023-02-06T11:33:07.502Z,101373.61
2023-02-06T11:35:46.983Z,101367.49
2023-02-06T11:38:20.240Z,101367.88
2023-02-06T11:41:02.843Z,101366.48
2023-02-06T11:43:42.597Z,101368.08
2023-02-06T11:46:19.473Z,101365.54
2023-02-06T11:49:01.013Z,101363.35
2023-02-06T11:51:52.219Z,101370.15
2023-02-06T11:54:35.455Z,101373.13
2023-02-06T11:57:23.947Z,101368.55
2023-02-06T11:59:59.314Z,101370.89
2023-02-06T12:02:31.111Z,101366.95
2023-02-06T12:05:16.484Z,101355.31
2023-02-06T12:08:03.652Z,101359.62
2023-02-06T12:10:34.790Z,101354.15
2023-02-06T12:13:37.916Z,101354.02
2023-02-06T12:16:06.770Z,101350.73
2023-02-06T12:18:45.439Z,101357.19
2023-02-06T12:21:16.409Z,101349.61
2023-02-06T12:23:55.752Z,101343.99
2023-02-06T12:26:28.642Z,101350.14
2023-02-06T12:29:16.929Z,101354.75
2023-02-06T12:32:02.083Z,101359.77
2023-02-06T12:34:56.457Z,101370.39
2023-02-06T12:37:42.517Z,101358.88
2023-02-06T12:40:34.331Z,101370.91
2023-02-06T12:43:10.627Z,101358.19
2023-02-06T12:46:01.790Z,101359.05
2023-02-06T12:48:35.811Z,101356.07
2023-02-06T12:51:16.939Z,101348.80
2023-02-06T12:53:48.906Z,101350.86
2023-02-06T12:56:35.773Z,101349.98
2023-02-06T12:59:34.787Z,101346.34
2023-02-06T13:02:16.703Z,101340.73
2023-02-06T13:04:47.080Z,101331.61
2023-02-06T13:07:17.848Z,101338.20
2023-02-06T13:09:51.934Z,101343.75
2023-02-06T13:12:23.811Z,101342.63
2023-02-06T13:14:53.051Z,101338.98
2023-02-06T13:17:23.559Z,101344.34
2023-02-06T13:20:09.205Z,101339.40
2023-02-06T13:22:41.608Z,101328.71
2023-02-06T13:25:32.306Z,101320.83
2023-02-06T13:28:01.844Z,101324.63
2023-02-06T13:30:30.371Z,101331.25
2023-02-06T13:33:14.099Z,101335.52
2023-02-06T13:35:55.922Z,101335.27
2023-02-06T13:38:23.998Z,101339.38
2023-02-06T13:41:14.441Z,101342.25
2023-02-06T13:43:54.339Z,101351.67
2023-02-06T13:46:43.954Z,101340.70
2023-02-06T13:49:20.949Z,101340.80
2023-02-06T13:51:58.712Z,101343.20
2023-02-06T13:54:39.384Z,101342.64
2023-02-06T13:57:38.823Z,101349.72
2023-02-06T14:00:19.296Z,101351.39
2023-02-06T14:02:51.938Z,101351.61
2023-02-06T14:05:28.315Z,101353.23
2023-02-06T14:08:13.102Z,101355.80
2023-02-06T14:11:14.023Z,101350.02
2023-02-06T14:13:49.985Z,101350.80
2023-02-06T14:16:41.306Z,101350.08
2023-02-06T14:19:44.822Z,101351.91
2023-02-06T14:22:39.863Z,101352.52
2023-02-06T14:25:49.331Z,101355.77
2023-02-06T14:28:20.350Z,101350.93
2023-02-06T14:30:58.511Z,101353.64
2023-02-06T14:33:55.960Z,101353.98
2023-02-06T14:36:43.429Z,101359.77
2023-02-06T14:39:34.009Z,101362.95
2023-02-06T14:42:07.305Z,101363.40
2023-02-06T14:44:35.227Z,101367.55
2023-02-06T14:47:04.072Z,101377.33
2023-02-06T14:49:36.197Z,101379.70
2023-02-06T14:52:04.748Z,101386.58
2023-02-06T14:54:35.082Z,101390.65
2023-02-06T14:57:13.831Z,101391.48
2023-02-06T14:59:59.944Z,101391.10
2023-02-06T15:02:33.547Z,101396.57
2023-02-06T15:05:02.323Z,101394.79
2023-02-06T15:07:30.755Z,101393.62
2023-02-06T15:10:09.211Z,101399.71
2023-02-06T15:12:38.351Z,101402.67
2023-02-06T15:15:15.795Z,101403.95
2023-02-06T15:17:43.997Z,101402.37
2023-02-06T15:20:33.742Z,101407.35
2023-02-06T15:23:24.316Z,101414.16
2023-02-06T15:26:14.052Z,101416.58
2023-02-06T15:28:42.235Z,101422.70
2023-02-06T15:31:18.916Z,101426.67
2023-02-06T15:33:51.755Z,101423.92
2023-02-06T15:36:21.204Z,101429.04
2023-02-06T15:38:49.362Z,101431.70
2023-02-06T15:41:17.460Z,101434.16
2023-02-06T15:43:47.137Z,101432.55
2023-02-06T15:46:15.277Z,101439.01
2023-02-06T15:48:51.233Z,101437.69
2023-02-06T15:51:26.235Z,101442.17
2023-02-06T15:54:16.305Z,101438.20
2023-02-06T15:56:48.596Z,101443.05
2023-02-06T15:59:20.912Z,101445.27
2023-02-06T16:01:49.341Z,101450.38
2023-02-06T16:04:24.202Z,101444.68
2023-02-06T16:07:12.768Z,101440.90
2023-02-06T16:09:43.930Z,101441.66
2023-02-06T16:12:12.470Z,101438.05
2023-02-06T16:14:42.077Z,101438.05
2023-02-06T16:17:10.514Z,101442.59
2023-02-06T16:19:47.032Z,101445.27
2023-02-06T16:22:28.382Z,101437.98
2023-02-06T16:25:22.243Z,101436.92
2023-02-06T16:27:51.527Z,101427.42
2023-02-06T16:30:26.103Z,101424.69
2023-02-06T16:32:55.579Z,101417.45
2023-02-06T16:35:24.978Z,101411.54
2023-02-06T16:37:54.264Z,101416.89
2023-02-06T16:40:23.401Z,101410.94
2023-02-06T16:42:52.132Z,101413.20
2023-02-06T16:45:22.452Z,101412.92
2023-02-06T16:47:50.636Z,101410.34
2023-02-06T16:50:19.006Z,101409.82
2023-02-06T16:52:53.550Z,101409.73
2023-02-06T16:55:24.735Z,101414.06
2023-02-06T16:57:55.419Z,101410.80
2023-02-06T17:00:25.946Z,101410.92
2023-02-06T17:02:54.442Z,101405.86
2023-02-06T17:05:24.465Z,101416.19
2023-02-06T17:07:52.960Z,101412.27
2023-02-06T17:10:24.129Z,101410.87
2023-02-06T17:12:52.703Z,101417.52
2023-02-06T17:15:21.094Z,101412.38
2023-02-06T17:17:49.750Z,101414.77
2023-02-06T17:20:33.340Z,101414.08
2023-02-06T17:23:01.847Z,101414.20
2023-02-06T17:25:34.932Z,101417.15
2023-02-06T17:28:03.725Z,101420.52
2023-02-06T17:30:32.199Z,101420.39
2023-02-06T17:33:00.668Z,101423.52
2023-02-06T17:35:29.054Z,101423.92
2023-02-06T17:37:57.936Z,101420.83
2023-02-06T17:40:31.035Z,101424.77
2023-02-06T17:43:00.635Z,101422.50
2023-02-06T17:45:30.184Z,101416.94
2023-02-06T17:47:59.576Z,101407.38
2023-02-06T17:50:28.084Z,101409.57
2023-02-06T17:52:59.883Z,101410.48
2023-02-06T17:55:28.392Z,101402.87
2023-02-06T17:57:57.333Z,101407.16
2023-02-06T18:00:27.387Z,101404.14
2023-02-06T18:03:03.040Z,101406.79
2023-02-06T18:05:31.948Z,101409.52
2023-02-06T18:08:01.486Z,101412.55
2023-02-06T18:10:30.121Z,101416.85
2023-02-06T18:12:58.596Z,101419.95
2023-02-06T18:15:27.195Z,101422.29
2023-02-06T18:17:56.516Z,101423.23
2023-02-06T18:20:27.968Z,101424.27
2023-02-06T18:22:56.776Z,101424.98
2023-02-06T18:25:25.980Z,101420.08
2023-02-06T18:27:54.585Z,101428.02
2023-02-06T18:30:23.359Z,101423.40
2023-02-06T18:32:54.586Z,101426.11
2023-02-06T18:35:23.112Z,101428.30
2023-02-06T18:37:52.863Z,101432.56
2023-02-06T18:40:23.077Z,101431.48
2023-02-06T18:42:56.386Z,101433.50
2023-02-06T18:45:31.811Z,101434.62
2023-02-06T18:48:04.061Z,101440.10
2023-02-06T18:50:34.797Z,101436.48
2023-02-06T18:53:04.915Z,101437.92
2023-02-06T18:55:35.660Z,101440.24
2023-02-06T18:58:05.746Z,101441.52
2023-02-06T19:00:40.407Z,101441.45
2023-02-06T19:03:13.127Z,101445.10
2023-02-06T19:05:50.619Z,101449.91
2023-02-06T19:08:20.519Z,101446.27
2023-02-06T19:10:51.913Z,101442.93
2023-02-06T19:13:22.839Z,101443.16
2023-02-06T19:16:08.198Z,101445.29
2023-02-06T19:18:40.962Z,101445.31
2023-02-06T19:21:19.320Z,101443.21
2023-02-06T19:23:50.380Z,101443.10
2023-02-06T19:26:19.948Z,101440.09
2023-02-06T19:28:48.927Z,101437.94
2023-02-06T19:31:26.816Z,101433.71
2023-02-06T19:34:02.283Z,101432.39
2023-02-06T19:36:33.235Z,101431.90
2023-02-06T19:39:13.664Z,101434.05
2023-02-06T19:41:46.660Z,101437.64
2023-02-06T19:44:20.936Z,101439.38
2023-02-06T19:46:50.398Z,101433.30
2023-02-06T19:49:19.160Z,101428.39
2023-02-06T19:51:47.820Z,101426.10
2023-02-06T19:54:16.395Z,101422.65
2023-02-06T19:56:48.033Z,101414.45
2023-02-06T19:59:27.202Z,101418.89
2023-02-06T20:02:03.181Z,101418.95
2023-02-06T20:04:40.579Z,101418.48
2023-02-06T20:07:10.222Z,101418.80
2023-02-06T20:09:43.946Z,101415.38
2023-02-06T20:12:15.717Z,101414.95
2023-02-06T20:14:46.842Z,101411.24
2023-02-06T20:17:20.486Z,101410.86
2023-02-06T20:19:51.285Z,101407.50
2023-02-06T20:22:20.308Z,101403.79
2023-02-06T20:24:49.078Z,101404.52
2023-02-06T20:27:19.450Z,101401.05
2023-02-06T20:29:48.291Z,101401.95
2023-02-06T20:32:24.723Z,101402.59
2023-02-06T20:34:53.715Z,101403.67
2023-02-06T20:37:22.952Z,101400.81
2023-02-06T20:39:51.414Z,101398.41
2023-02-06T20:42:22.730Z,101401.31
2023-02-06T20:44:54.325Z,101402.30
2023-02-06T20:47:26.313Z,101396.60
2023-02-06T20:49:55.779Z,101402.61
2023-02-06T20:52:24.207Z,101405.81
2023-02-06T20:54:52.542Z,101406.20
2023-02-06T20:57:22.415Z,101402.66
2023-02-06T20:59:50.410Z,101402.64
2023-02-06T21:02:19.247Z,101402.05
2023-02-06T21:04:47.320Z,101400.77
2023-02-06T21:07:19.461Z,101403.95
2023-02-06T21:09:48.320Z,101405.68
2023-02-06T21:12:16.510Z,101403.69
2023-02-06T21:14:45.025Z,101403.25
2023-02-06T21:17:13.417Z,101403.59
2023-02-06T21:19:41.939Z,101405.28
2023-02-06T21:22:10.451Z,101402.11
2023-02-06T21:24:38.848Z,101403.79
2023-02-06T21:27:07.025Z,101398.35
2023-02-06T21:29:35.093Z,101400.90
2023-02-06T21:32:13.019Z,101402.11
2023-02-06T21:34:42.447Z,101403.59
2023-02-06T21:37:10.564Z,101404.77
2023-02-06T21:39:41.656Z,101404.41
2023-02-06T21:42:13.470Z,101404.25
2023-02-06T21:44:44.864Z,101401.04
2023-02-06T21:47:14.934Z,101395.38
2023-02-06T21:49:44.268Z,101387.17
2023-02-06T21:52:13.051Z,101387.23
2023-02-06T21:54:44.374Z,101381.16
2023-02-06T21:57:12.944Z,101380.23
2023-02-06T21:59:42.910Z,101379.80
2023-02-06T22:02:11.721Z,101374.27
2023-02-06T22:04:40.949Z,101368.88
2023-02-06T22:07:10.999Z,101364.81
2023-02-06T22:09:39.675Z,101360.28
2023-02-06T22:12:07.856Z,101364.30
2023-02-06T22:14:35.901Z,101358.98
2023-02-06T22:17:03.879Z,101361.77
2023-02-06T22:19:31.982Z,101356.40
2023-02-06T22:22:02.630Z,101354.37
2023-02-06T22:24:31.690Z,101354.38
2023-02-06T22:26:59.635Z,101355.27
2023-02-06T22:29:30.530Z,101352.27
2023-02-06T22:31:58.766Z,101352.43
2023-02-06T22:34:26.874Z,101350.77
2023-02-06T22:36:54.867Z,101349.21
2023-02-06T22:39:23.447Z,101346.63
2023-02-06T22:41:52.701Z,101347.30
2023-02-06T22:44:20.985Z,101348.77
2023-02-06T22:46:52.472Z,101349.39
2023-02-06T22:49:20.717Z,101346.63
2023-02-06T22:51:48.791Z,101350.51
2023-02-06T22:54:16.797Z,101352.98
2023-02-06T22:56:47.736Z,101350.75
2023-02-06T22:59:24.156Z,101347.36
2023-02-06T23:01:58.192Z,101343.23
2023-02-06T23:04:30.787Z,101341.20
2023-02-06T23:06:59.026Z,101341.38
2023-02-06T23:09:30.830Z,101338.80
2023-02-06T23:12:02.769Z,101335.05
2023-02-06T23:14:31.784Z,101337.81
2023-02-06T23:17:00.815Z,101334.02
2023-02-06T23:19:29.993Z,101335.46
2023-02-06T23:21:58.090Z,101330.30
2023-02-06T23:24:29.084Z,101334.66
2023-02-06T23:26:58.034Z,101336.42
2023-02-06T23:29:26.572Z,101331.13
2023-02-06T23:31:55.750Z,101332.61
2023-02-06T23:34:24.597Z,101336.66
2023-02-06T23:36:56.027Z,101335.55
2023-02-06T23:39:24.811Z,101333.63
2023-02-06T23:41:52.929Z,101326.52
2023-02-06T23:44:20.887Z,101331.15
2023-02-06T23:46:49.470Z,101332.02
2023-02-06T23:49:18.724Z,101331.55
2023-02-06T23:51:47.152Z,101330.50
2023-02-06T23:54:15.058Z,101332.17
2023-02-06T23:56:46.526Z,101329.18
2023-02-06T23:59:14.959Z,101325.67
